Time;durP1;ratioP1;P1;durP2;ratioP2;P2;SDS_P1;SDS_P2;PMS_P1;PMS_P2;Temp;Humidity;BMP_temperature;BMP_pressure;BME280_temperature;BME280_humidity;BME280_pressure;Samples;Min_cycle;Max_cycle;Signal;HPM_P1;HPM_P2
2022/09/15 00:00:04;;;;;;;;;;;;;;;;;;5114348;27;19946;-78
2022/09/15 00:02:50;;;;;;;;;;;;;;;;;;5102510;27;19926;-78
2022/09/15 00:05:37;;;;;;;;;;;;;;;;;;5104138;28;19916;-77
2022/09/15 00:08:23;;;;;;;;;;;;;;;;;;5093813;28;19915;-77
2022/09/15 00:11:10;;;;;;;;;;;;;;;;;;5099838;28;19919;-77
2022/09/15 00:13:56;;;;;;;;;;;;;;;;;;5093427;28;19916;-77
2022/09/15 00:16:43;;;;;;;;;;;;;;;;;;5103081;28;19916;-77
2022/09/15 00:19:29;;;;;;;;;;;;;;;;;;5102305;28;19930;-76
2022/09/15 00:22:17;;;;;;;;;;;;;;;;;;5103155;28;19920;-77
2022/09/15 00:25:03;;;;;;;;;;;;;;;;;;5111407;28;19920;-76
2022/09/15 00:27:50;;;;;;;;;;;;;;;;;;5091262;28;19918;-77
2022/09/15 00:30:36;;;;;;;;;;;;;;;;;;5091391;28;20390;-77
2022/09/15 00:33:22;;;;;;;;;;;;;;;;;;5107365;28;19919;-77
2022/09/15 00:36:09;;;;;;;;;;;;;;;;;;5106283;28;19919;-77
2022/09/15 00:38:56;;;;;;;;;;;;;;;;;;5104946;28;19924;-77
2022/09/15 00:41:42;;;;;;;;;;;;;;;;;;5097029;28;19918;-77
2022/09/15 00:44:29;;;;;;;;;;;;;;;;;;5097538;28;19922;-76
2022/09/15 00:47:15;;;;;;;;;;;;;;;;;;5104527;28;19911;-77
2022/09/15 00:50:02;;;;;;;;;;;;;;;;;;5117542;28;19912;-76
2022/09/15 00:52:48;;;;;;;;;;;;;;;;;;5109104;28;20255;-76
2022/09/15 00:55:35;;;;;;;;;;;;;;;;;;5096355;28;19919;-77
2022/09/15 00:58:21;;;;;;;;;;;;;;;;;;5086634;28;19933;-77
2022/09/15 01:01:08;;;;;;;;;;;;;;;;;;5098506;28;20375;-76
2022/09/15 01:03:54;;;;;;;;;;;;;;;;;;5108253;28;20022;-79
2022/09/15 01:06:41;;;;;;;;;;;;;;;;;;5094031;28;20037;-76
2022/09/15 01:09:27;;;;;;;;;;;;;;;;;;5083638;28;20386;-76
2022/09/15 01:12:14;;;;;;;;;;;;;;;;;;5104658;28;19930;-76
2022/09/15 01:15:00;;;;;;;;;;;;;;;;;;5092369;28;19915;-76
2022/09/15 01:17:47;;;;;;;;;;;;;;;;;;5105062;28;19923;-76
2022/09/15 01:20:33;;;;;;;;;;;;;;;;;;5100362;28;19931;-76
2022/09/15 01:23:20;;;;;;;;;;;;;;;;;;5093645;28;19920;-75
2022/09/15 01:26:06;;;;;;;;;;;;;;;;;;5107994;28;19916;-77
2022/09/15 01:28:53;;;;;;;;;;;;;;;;;;5091403;28;19919;-77
2022/09/15 01:33:02;;;;;;;;;;;;;;;;;;5108376;28;19923;-77
2022/09/15 01:34:48;;;;;;;;;;;;;;;;;;5105661;27;19907;-77
2022/09/15 01:37:35;;;;;;;;;;;;;;;;;;5101131;27;19924;-77
2022/09/15 01:40:21;;;;;;;;;;;;;;;;;;5097710;27;20379;-77
2022/09/15 01:43:08;;;;;;;;;;;;;;;;;;5094770;27;19918;-77
2022/09/15 01:45:54;;;;;;;;;;;;;;;;;;5111258;27;19916;-77
2022/09/15 01:48:41;;;;;;;;;;;;;;;;;;5105965;28;20159;-77
2022/09/15 01:51:27;;;;;;;;;;;;;;;;;;5106294;28;19916;-76
2022/09/15 01:54:14;;;;;;;;;;;;;;;;;;5100664;27;20506;-76
2022/09/15 01:57:00;;;;;;;;;;;;;;;;;;5110446;27;19926;-77
2022/09/15 01:59:47;;;;;;;;;;;;;;;;;;5115754;27;19923;-77
2022/09/15 02:02:33;;;;;;;;;;;;;;;;;;5108552;27;19919;-77
2022/09/15 02:05:20;;;;;;;;;;;;;;;;;;5109286;27;19912;-77
2022/09/15 02:08:07;;;;;;;;;;;;;;;;;;5111541;27;19927;-77
2022/09/15 02:10:57;;;;;;;;;;;;;;;;;;5102592;28;19913;-78
2022/09/15 02:13:44;;;;;;;;;;;;;;;;;;5105711;28;19953;-80
2022/09/15 02:16:30;;;;;;;;;;;;;;;;;;5111227;28;20286;-78
2022/09/15 02:19:17;;;;;;;;;;;;;;;;;;5105868;27;19977;-77
2022/09/15 02:22:06;;;;;;;;;;;;;;;;;;5099678;28;19946;-77
2022/09/15 02:24:52;;;;;;;;;;;;;;;;;;5106986;28;20382;-78
2022/09/15 02:27:39;;;;;;;;;;;;;;;;;;5109689;27;19918;-78
2022/09/15 02:30:26;;;;;;;;;;;;;;;;;;5093385;28;19911;-77
2022/09/15 02:33:13;;;;;;;;;;;;;;;;;;5100991;27;19916;-77
2022/09/15 02:35:59;;;;;;;;;;;;;;;;;;5114225;27;19912;-77
2022/09/15 02:38:45;;;;;;;;;;;;;;;;;;5112638;27;20362;-78
2022/09/15 02:41:32;;;;;;;;;;;;;;;;;;5110876;27;19915;-77
2022/09/15 02:44:18;;;;;;;;;;;;;;;;;;5087221;28;19912;-76
2022/09/15 02:47:05;;;;;;;;;;;;;;;;;;5103722;28;19916;-77
2022/09/15 02:49:52;;;;;;;;;;;;;;;;;;5109783;27;20635;-77
2022/09/15 02:52:39;;;;;;;;;;;;;;;;;;5107613;27;19934;-77
2022/09/15 02:55:27;;;;;;;;;;;;;;;;;;5110541;27;19916;-77
2022/09/15 02:58:14;;;;;;;;;;;;;;;;;;5110106;27;20378;-76
2022/09/15 03:01:00;;;;;;;;;;;;;;;;;;5119428;27;19919;-77
2022/09/15 03:03:47;;;;;;;;;;;;;;;;;;5111963;27;19916;-77
2022/09/15 03:06:34;;;;;;;;;;;;;;;;;;5108678;27;19915;-76
2022/09/15 03:09:20;;;;;;;;;;;;;;;;;;5106182;28;19916;-76
2022/09/15 03:12:06;;;;;;;;;;;;;;;;;;5099189;28;20446;-76
2022/09/15 03:14:53;;;;;;;;;;;;;;;;;;5108903;27;19912;-76
2022/09/15 03:17:42;;;;;;;;;;;;;;;;;;5121738;27;19942;-76
2022/09/15 03:20:29;;;;;;;;;;;;;;;;;;5101727;27;19912;-76
2022/09/15 03:23:16;;;;;;;;;;;;;;;;;;5102541;28;20333;-76
2022/09/15 03:26:02;;;;;;;;;;;;;;;;;;5110727;27;19929;-77
2022/09/15 03:28:49;;;;;;;;;;;;;;;;;;5085932;27;20006;-76
2022/09/15 03:31:35;;;;;;;;;;;;;;;;;;5106423;27;19919;-76
2022/09/15 03:34:21;;;;;;;;;;;;;;;;;;5101240;28;19916;-77
2022/09/15 03:37:08;;;;;;;;;;;;;;;;;;5092451;28;19912;-77
2022/09/15 03:39:54;;;;;;;;;;;;;;;;;;5095806;28;19935;-76
2022/09/15 03:42:41;;;;;;;;;;;;;;;;;;5096598;27;19919;-76
2022/09/15 03:45:27;;;;;;;;;;;;;;;;;;5109411;27;19919;-76
2022/09/15 03:48:14;;;;;;;;;;;;;;;;;;5088966;27;19919;-76
2022/09/15 03:51:00;;;;;;;;;;;;;;;;;;5104297;27;19926;-76
2022/09/15 03:53:47;;;;;;;;;;;;;;;;;;5102145;27;19939;-76
2022/09/15 03:56:33;;;;;;;;;;;;;;;;;;5099848;27;19927;-76
2022/09/15 03:59:20;;;;;;;;;;;;;;;;;;5098615;28;19923;-76
2022/09/15 04:02:06;;;;;;;;;;;;;;;;;;5100355;27;19927;-78
2022/09/15 04:04:53;;;;;;;;;;;;;;;;;;5095729;28;19908;-77
2022/09/15 04:07:39;;;;;;;;;;;;;;;;;;5099135;28;19918;-77
2022/09/15 04:10:26;;;;;;;;;;;;;;;;;;5098943;28;20363;-76
2022/09/15 04:13:12;;;;;;;;;;;;;;;;;;5097639;27;19916;-77
2022/09/15 04:15:59;;;;;;;;;;;;;;;;;;5091868;28;19912;-78
2022/09/15 04:18:46;;;;;;;;;;;;;;;;;;5097478;28;19924;-75
2022/09/15 04:21:32;;;;;;;;;;;;;;;;;;5091883;28;19920;-77
2022/09/15 04:24:19;;;;;;;;;;;;;;;;;;5105383;28;19920;-78
2022/09/15 04:27:05;;;;;;;;;;;;;;;;;;5104210;28;19919;-77
2022/09/15 04:29:52;;;;;;;;;;;;;;;;;;5103314;28;19938;-77
2022/09/15 04:32:38;;;;;;;;;;;;;;;;;;5110248;28;19907;-77
2022/09/15 04:35:25;;;;;;;;;;;;;;;;;;5103218;28;20428;-78
2022/09/15 04:38:11;;;;;;;;;;;;;;;;;;5091184;28;19916;-78
2022/09/15 04:40:58;;;;;;;;;;;;;;;;;;5105449;28;19915;-78
2022/09/15 04:43:44;;;;;;;;;;;;;;;;;;5107119;28;19922;-78
2022/09/15 04:46:31;;;;;;;;;;;;;;;;;;5105275;28;19907;-78
2022/09/15 04:49:17;;;;;;;;;;;;;;;;;;5112687;28;19927;-78
2022/09/15 04:52:04;;;;;;;;;;;;;;;;;;5099708;28;19919;-78
2022/09/15 04:54:50;;;;;;;;;;;;;;;;;;5106577;28;19914;-77
2022/09/15 04:57:37;;;;;;;;;;;;;;;;;;5106040;28;19918;-77
2022/09/15 05:00:25;;;;;;;;;;;;;;;;;;5108717;28;20283;-77
2022/09/15 05:03:12;;;;;;;;;;;;;;;;;;5077655;28;19915;-78
2022/09/15 05:05:58;;;;;;;;;;;;;;;;;;5095782;28;20372;-75
2022/09/15 05:08:45;;;;;;;;;;;;;;;;;;5105038;28;19908;-76
2022/09/15 05:11:31;;;;;;;;;;;;;;;;;;5110236;28;19923;-76
2022/09/15 05:14:18;;;;;;;;;;;;;;;;;;5113322;27;19912;-75
2022/09/15 05:17:04;;;;;;;;;;;;;;;;;;5116474;27;19908;-74
2022/09/15 05:19:51;;;;;;;;;;;;;;;;;;5096942;28;19922;-76
2022/09/15 05:22:37;;;;;;;;;;;;;;;;;;5096023;28;19916;-76
2022/09/15 05:25:24;;;;;;;;;;;;;;;;;;5097097;28;19927;-75
2022/09/15 05:28:10;;;;;;;;;;;;;;;;;;5100828;28;19917;-75
2022/09/15 05:30:57;;;;;;;;;;;;;;;;;;5096715;28;19949;-75
2022/09/15 05:33:43;;;;;;;;;;;;;;;;;;5110241;27;19918;-75
2022/09/15 05:36:30;;;;;;;;;;;;;;;;;;5104341;27;19931;-76
2022/09/15 05:39:16;;;;;;;;;;;;;;;;;;5116515;27;19930;-76
2022/09/15 05:42:03;;;;;;;;;;;;;;;;;;5110915;27;20209;-74
2022/09/15 05:44:49;;;;;;;;;;;;;;;;;;5105656;27;19916;-75
2022/09/15 05:47:36;;;;;;;;;;;;;;;;;;5099070;27;19916;-77
2022/09/15 05:50:22;;;;;;;;;;;;;;;;;;5100533;27;20295;-76
2022/09/15 05:53:09;;;;;;;;;;;;;;;;;;5102027;27;20020;-76
2022/09/15 05:55:55;;;;;;;;;;;;;;;;;;5101468;28;19928;-75
2022/09/15 05:58:42;;;;;;;;;;;;;;;;;;5086801;28;20010;-78
2022/09/15 06:01:28;;;;;;;;;;;;;;;;;;5108549;27;19930;-82
2022/09/15 06:04:15;;;;;;;;;;;;;;;;;;5114014;27;20363;-83
2022/09/15 06:07:02;;;;;;;;;;;;;;;;;;5107622;27;19912;-81
2022/09/15 06:09:49;;;;;;;;;;;;;;;;;;5099923;27;19908;-82
2022/09/15 06:12:35;;;;;;;;;;;;;;;;;;5090343;27;19911;-83
2022/09/15 06:15:22;;;;;;;;;;;;;;;;;;5113891;27;20359;-83
2022/09/15 06:18:08;;;;;;;;;;;;;;;;;;5109307;27;19919;-82
2022/09/15 06:20:57;;;;;;;;;;;;;;;;;;5097253;27;19916;-83
2022/09/15 06:23:44;;;;;;;;;;;;;;;;;;5096744;28;19920;-82
2022/09/15 06:26:30;;;;;;;;;;;;;;;;;;5096633;28;19915;-82
2022/09/15 06:29:17;;;;;;;;;;;;;;;;;;5110775;27;19918;-82
2022/09/15 06:32:03;;;;;;;;;;;;;;;;;;5097204;28;19926;-82
2022/09/15 06:34:50;;;;;;;;;;;;;;;;;;5103529;27;20291;-84
2022/09/15 06:37:36;;;;;;;;;;;;;;;;;;5092014;28;19907;-82
2022/09/15 06:40:23;;;;;;;;;;;;;;;;;;5103197;27;19923;-82
2022/09/15 06:43:09;;;;;;;;;;;;;;;;;;5101921;27;19909;-82
2022/09/15 06:45:56;;;;;;;;;;;;;;;;;;5085659;28;19908;-82
2022/09/15 06:48:43;;;;;;;;;;;;;;;;;;5098693;28;19931;-82
2022/09/15 06:51:34;;;;;;;;;;;;;;;;;;5113581;27;19908;-81
2022/09/15 06:54:20;;;;;;;;;;;;;;;;;;5098236;28;19912;-82
2022/09/15 06:57:07;;;;;;;;;;;;;;;;;;5103486;28;19916;-83
2022/09/15 06:59:53;;;;;;;;;;;;;;;;;;5104276;28;19924;-82
2022/09/15 07:02:40;;;;;;;;;;;;;;;;;;5116748;27;20275;-82
2022/09/15 07:05:26;;;;;;;;;;;;;;;;;;5108216;27;19914;-82
2022/09/15 07:08:13;;;;;;;;;;;;;;;;;;5090666;28;19912;-82
2022/09/15 07:10:59;;;;;;;;;;;;;;;;;;5098238;28;19915;-82
2022/09/15 07:13:46;;;;;;;;;;;;;;;;;;5098057;28;20366;-82
2022/09/15 07:16:32;;;;;;;;;;;;;;;;;;5093689;28;19912;-83
2022/09/15 07:19:18;;;;;;;;;;;;;;;;;;5103744;27;20355;-85
2022/09/15 07:22:05;;;;;;;;;;;;;;;;;;5116080;27;19908;-83
2022/09/15 07:24:51;;;;;;;;;;;;;;;;;;5091335;28;19916;-83
2022/09/15 07:27:38;;;;;;;;;;;;;;;;;;5112070;27;19919;-83
2022/09/15 07:30:26;;;;;;;;;;;;;;;;;;5108372;28;20201;-83
2022/09/15 07:33:13;;;;;;;;;;;;;;;;;;5098547;27;20341;-83
2022/09/15 07:36:00;;;;;;;;;;;;;;;;;;5102463;28;19912;-83
2022/09/15 07:38:49;;;;;;;;;;;;;;;;;;5096061;28;19919;-83
2022/09/15 07:41:36;;;;;;;;;;;;;;;;;;5111973;27;19908;-83
2022/09/15 07:44:22;;;;;;;;;;;;;;;;;;5089007;28;19912;-83
2022/09/15 07:47:09;;;;;;;;;;;;;;;;;;5109261;27;19911;-83
2022/09/15 07:49:55;;;;;;;;;;;;;;;;;;5111065;27;19908;-83
2022/09/15 07:52:42;;;;;;;;;;;;;;;;;;5109371;28;20292;-83
2022/09/15 07:55:29;;;;;;;;;;;;;;;;;;5104252;28;19935;-82
2022/09/15 07:58:15;;;;;;;;;;;;;;;;;;5106767;28;20310;-83
2022/09/15 08:01:02;;;;;;;;;;;;;;;;;;5116061;27;19923;-82
2022/09/15 08:03:48;;;;;;;;;;;;;;;;;;5120770;27;19908;-83
2022/09/15 08:06:35;;;;;;;;;;;;;;;;;;5100586;28;19914;-83
2022/09/15 08:09:22;;;;;;;;;;;;;;;;;;5088267;28;19912;-82
2022/09/15 08:12:08;;;;;;;;;;;;;;;;;;5090745;28;19915;-83
2022/09/15 08:14:55;;;;;;;;;;;;;;;;;;5113150;27;19914;-83
2022/09/15 08:17:41;;;;;;;;;;;;;;;;;;5086101;28;19916;-83
2022/09/15 08:20:28;;;;;;;;;;;;;;;;;;5096761;28;19919;-84
2022/09/15 08:23:14;;;;;;;;;;;;;;;;;;5099577;28;20255;-84
2022/09/15 08:26:01;;;;;;;;;;;;;;;;;;5097549;28;19921;-83
2022/09/15 08:28:47;;;;;;;;;;;;;;;;;;5110228;28;19923;-83
2022/09/15 08:31:34;;;;;;;;;;;;;;;;;;5085346;28;19912;-83
2022/09/15 08:34:20;;;;;;;;;;;;;;;;;;5091210;28;19931;-83
2022/09/15 08:37:06;;;;;;;;;;;;;;;;;;5104990;28;19915;-84
2022/09/15 08:39:53;;;;;;;;;;;;;;;;;;5093157;28;19920;-83
2022/09/15 08:42:39;;;;;;;;;;;;;;;;;;5113912;28;19908;-82
2022/09/15 08:45:26;;;;;;;;;;;;;;;;;;5096791;28;20279;-82
2022/09/15 08:48:14;;;;;;;;;;;;;;;;;;5098647;28;20256;-82
2022/09/15 08:51:01;;;;;;;;;;;;;;;;;;5101272;27;19927;-83
2022/09/15 08:53:47;;;;;;;;;;;;;;;;;;5103573;27;19912;-83
2022/09/15 08:56:34;;;;;;;;;;;;;;;;;;5100772;28;19908;-83
2022/09/15 08:59:21;;;;;;;;;;;;;;;;;;5114825;27;19916;-82
2022/09/15 09:02:07;;;;;;;;;;;;;;;;;;5092886;28;19919;-82
2022/09/15 09:04:55;;;;;;;;;;;;;;;;;;5114696;27;19908;-83
2022/09/15 09:07:42;;;;;;;;;;;;;;;;;;5105946;27;19912;-82
2022/09/15 09:10:28;;;;;;;;;;;;;;;;;;5122922;27;20465;-82
2022/09/15 09:13:15;;;;;;;;;;;;;;;;;;5122018;27;20392;-82
2022/09/15 09:16:03;;;;;;;;;;;;;;;;;;5127338;27;19914;-85
2022/09/15 09:18:49;;;;;;;;;;;;;;;;;;5100828;28;19994;-85
2022/09/15 09:21:36;;;;;;;;;;;;;;;;;;5105256;27;19911;-85
2022/09/15 09:24:22;;;;;;;;;;;;;;;;;;5098903;27;20366;-85
2022/09/15 09:27:09;;;;;;;;;;;;;;;;;;5117042;27;19923;-84
2022/09/15 09:29:55;;;;;;;;;;;;;;;;;;5112355;27;20372;-86
2022/09/15 09:32:43;;;;;;;;;;;;;;;;;;5112989;28;19915;-85
2022/09/15 09:35:30;;;;;;;;;;;;;;;;;;5098513;28;19918;-86
2022/09/15 09:38:16;;;;;;;;;;;;;;;;;;5108490;27;19922;-83
2022/09/15 09:41:03;;;;;;;;;;;;;;;;;;5101249;27;20360;-83
2022/09/15 09:43:49;;;;;;;;;;;;;;;;;;5102918;27;20428;-82
2022/09/15 09:46:36;;;;;;;;;;;;;;;;;;5104807;27;19923;-83
2022/09/15 09:49:22;;;;;;;;;;;;;;;;;;5093706;27;19924;-83
2022/09/15 09:52:09;;;;;;;;;;;;;;;;;;5112336;27;19918;-83
2022/09/15 09:54:55;;;;;;;;;;;;;;;;;;5098547;28;20252;-83
2022/09/15 09:57:42;;;;;;;;;;;;;;;;;;5115572;27;19918;-82
2022/09/15 10:00:28;;;;;;;;;;;;;;;;;;5099854;28;19922;-82
2022/09/15 10:03:15;;;;;;;;;;;;;;;;;;5098202;28;20227;-82
2022/09/15 10:06:02;;;;;;;;;;;;;;;;;;5120075;27;20315;-82
2022/09/15 10:08:48;;;;;;;;;;;;;;;;;;5102641;27;19908;-83
2022/09/15 10:11:35;;;;;;;;;;;;;;;;;;5114909;27;19919;-82
2022/09/15 10:14:21;;;;;;;;;;;;;;;;;;5112885;27;19913;-82
2022/09/15 10:17:08;;;;;;;;;;;;;;;;;;5111971;27;20368;-82
2022/09/15 10:19:54;;;;;;;;;;;;;;;;;;5102241;27;19931;-82
2022/09/15 10:22:41;;;;;;;;;;;;;;;;;;5106997;27;19920;-82
2022/09/15 10:25:28;;;;;;;;;;;;;;;;;;5106152;27;19912;-82
2022/09/15 10:28:14;;;;;;;;;;;;;;;;;;5101521;27;19915;-82
2022/09/15 10:31:01;;;;;;;;;;;;;;;;;;5092880;28;19912;-82
2022/09/15 10:33:48;;;;;;;;;;;;;;;;;;5108884;27;19919;-82
2022/09/15 10:36:34;;;;;;;;;;;;;;;;;;5119137;27;19922;-82
2022/09/15 10:39:20;;;;;;;;;;;;;;;;;;5102773;27;19936;-81
2022/09/15 10:42:07;;;;;;;;;;;;;;;;;;5110913;27;19918;-81
2022/09/15 10:44:53;;;;;;;;;;;;;;;;;;5110527;27;19922;-81
2022/09/15 10:47:41;;;;;;;;;;;;;;;;;;5102836;27;19911;-82
2022/09/15 10:50:28;;;;;;;;;;;;;;;;;;5114432;27;19911;-82
2022/09/15 10:53:14;;;;;;;;;;;;;;;;;;5109998;27;19916;-82
2022/09/15 10:56:01;;;;;;;;;;;;;;;;;;5097444;27;19914;-82
2022/09/15 10:58:47;;;;;;;;;;;;;;;;;;5106900;27;19923;-82
2022/09/15 11:01:34;;;;;;;;;;;;;;;;;;5105861;28;20239;-82
2022/09/15 11:04:20;;;;;;;;;;;;;;;;;;5116046;27;19938;-82
2022/09/15 11:07:07;;;;;;;;;;;;;;;;;;5098456;28;19919;-81
2022/09/15 11:09:53;;;;;;;;;;;;;;;;;;5106099;28;19916;-83
2022/09/15 11:12:40;;;;;;;;;;;;;;;;;;5111358;28;19911;-81
2022/09/15 11:15:27;;;;;;;;;;;;;;;;;;5097328;28;19911;-82
2022/09/15 11:18:13;;;;;;;;;;;;;;;;;;5089401;28;19930;-89
2022/09/15 11:21:00;;;;;;;;;;;;;;;;;;5098003;28;19908;-90
2022/09/15 11:23:46;;;;;;;;;;;;;;;;;;5116049;27;20335;-90
2022/09/15 11:26:33;;;;;;;;;;;;;;;;;;5113253;28;19911;-84
2022/09/15 11:29:20;;;;;;;;;;;;;;;;;;5116753;27;19908;-83
2022/09/15 11:32:06;;;;;;;;;;;;;;;;;;5102757;27;19908;-83
2022/09/15 11:34:53;;;;;;;;;;;;;;;;;;5119397;27;19919;-83
2022/09/15 11:37:39;;;;;;;;;;;;;;;;;;5107409;28;20153;-83
2022/09/15 11:40:27;;;;;;;;;;;;;;;;;;5127387;27;19922;-83
2022/09/15 11:43:13;;;;;;;;;;;;;;;;;;5113528;27;19912;-82
2022/09/15 11:46:00;;;;;;;;;;;;;;;;;;5116011;28;20362;-82
2022/09/15 11:48:46;;;;;;;;;;;;;;;;;;5098378;27;19916;-83
2022/09/15 11:51:33;;;;;;;;;;;;;;;;;;5112089;27;19914;-83
2022/09/15 11:54:19;;;;;;;;;;;;;;;;;;5094729;27;19920;-83
2022/09/15 11:57:06;;;;;;;;;;;;;;;;;;5103899;28;20014;-83
2022/09/15 11:59:52;;;;;;;;;;;;;;;;;;5111507;28;19920;-82
2022/09/15 12:02:39;;;;;;;;;;;;;;;;;;5107239;27;19918;-82
2022/09/15 12:05:25;;;;;;;;;;;;;;;;;;5107322;28;19908;-82
2022/09/15 12:08:12;;;;;;;;;;;;;;;;;;5098400;28;19908;-82
2022/09/15 12:10:58;;;;;;;;;;;;;;;;;;5106288;27;20374;-82
2022/09/15 12:13:45;;;;;;;;;;;;;;;;;;5097073;28;19922;-82
2022/09/15 12:16:31;;;;;;;;;;;;;;;;;;5091684;28;19915;-85
2022/09/15 12:19:18;;;;;;;;;;;;;;;;;;5097680;27;20012;-83
2022/09/15 12:22:05;;;;;;;;;;;;;;;;;;5113199;27;19916;-83
2022/09/15 12:24:51;;;;;;;;;;;;;;;;;;5090757;28;19923;-82
2022/09/15 12:27:38;;;;;;;;;;;;;;;;;;5107923;27;19908;-82
2022/09/15 12:30:24;;;;;;;;;;;;;;;;;;5107170;28;19992;-82
2022/09/15 12:33:11;;;;;;;;;;;;;;;;;;5096796;28;19938;-82
2022/09/15 12:35:57;;;;;;;;;;;;;;;;;;5103449;28;19922;-84
2022/09/15 12:38:44;;;;;;;;;;;;;;;;;;5091392;28;19923;-82
2022/09/15 12:41:30;;;;;;;;;;;;;;;;;;5100366;28;19908;-85
2022/09/15 12:44:17;;;;;;;;;;;;;;;;;;5105241;28;19918;-84
2022/09/15 12:47:04;;;;;;;;;;;;;;;;;;5102611;28;19922;-84
2022/09/15 12:49:51;;;;;;;;;;;;;;;;;;5088529;28;19911;-84
2022/09/15 12:52:38;;;;;;;;;;;;;;;;;;5104449;28;19918;-83
2022/09/15 12:55:25;;;;;;;;;;;;;;;;;;5091540;28;19916;-84
2022/09/15 12:58:12;;;;;;;;;;;;;;;;;;5102184;28;20381;-83
2022/09/15 13:00:58;;;;;;;;;;;;;;;;;;5105410;28;19919;-82
2022/09/15 13:03:45;;;;;;;;;;;;;;;;;;5095011;28;20307;-83
2022/09/15 13:06:34;;;;;;;;;;;;;;;;;;5097262;28;19911;-83
2022/09/15 13:09:21;;;;;;;;;;;;;;;;;;5097782;28;19922;-83
2022/09/15 13:12:08;;;;;;;;;;;;;;;;;;5097099;28;19918;-82
2022/09/15 13:14:54;;;;;;;;;;;;;;;;;;5104488;28;19916;-83
2022/09/15 13:17:41;;;;;;;;;;;;;;;;;;5096202;28;20006;-84
2022/09/15 13:20:27;;;;;;;;;;;;;;;;;;5093047;28;19924;-83
2022/09/15 13:23:13;;;;;;;;;;;;;;;;;;5108664;28;20398;-83
2022/09/15 13:26:00;;;;;;;;;;;;;;;;;;5104881;28;19907;-83
2022/09/15 13:28:46;;;;;;;;;;;;;;;;;;5104266;28;19923;-83
2022/09/15 13:31:33;;;;;;;;;;;;;;;;;;5105735;28;19972;-82
2022/09/15 13:34:19;;;;;;;;;;;;;;;;;;5106604;28;19923;-83
2022/09/15 13:37:06;;;;;;;;;;;;;;;;;;5108826;27;19912;-83
2022/09/15 13:39:53;;;;;;;;;;;;;;;;;;5092506;28;19920;-84
2022/09/15 13:42:39;;;;;;;;;;;;;;;;;;5090660;28;19918;-83
2022/09/15 13:45:26;;;;;;;;;;;;;;;;;;5114661;27;19922;-83
2022/09/15 13:48:13;;;;;;;;;;;;;;;;;;5101813;28;19923;-83
2022/09/15 13:50:59;;;;;;;;;;;;;;;;;;5090453;28;19922;-83
2022/09/15 13:53:46;;;;;;;;;;;;;;;;;;5106319;27;19919;-83
2022/09/15 13:56:34;;;;;;;;;;;;;;;;;;5106212;28;19907;-83
2022/09/15 13:59:20;;;;;;;;;;;;;;;;;;5102313;28;20294;-83
2022/09/15 14:02:07;;;;;;;;;;;;;;;;;;5102948;27;19908;-83
2022/09/15 14:04:54;;;;;;;;;;;;;;;;;;5108978;28;19912;-84
2022/09/15 14:07:41;;;;;;;;;;;;;;;;;;5104921;27;19914;-82
2022/09/15 14:10:27;;;;;;;;;;;;;;;;;;5091882;28;19976;-83
2022/09/15 14:13:14;;;;;;;;;;;;;;;;;;5096963;27;19918;-82
2022/09/15 14:16:01;;;;;;;;;;;;;;;;;;5102365;27;20986;-82
2022/09/15 14:18:47;;;;;;;;;;;;;;;;;;5119883;27;19911;-83
2022/09/15 14:21:35;;;;;;;;;;;;;;;;;;5108036;28;19930;-81
2022/09/15 14:24:21;;;;;;;;;;;;;;;;;;5124413;28;19927;-83
2022/09/15 14:27:08;;;;;;;;;;;;;;;;;;5114177;27;19987;-83
2022/09/15 14:29:56;;;;;;;;;;;;;;;;;;5130981;27;19916;-83
2022/09/15 14:32:43;;;;;;;;;;;;;;;;;;5114933;28;19916;-81
2022/09/15 14:35:30;;;;;;;;;;;;;;;;;;5110646;28;19912;-81
2022/09/15 14:38:17;;;;;;;;;;;;;;;;;;5130164;27;19912;-81
2022/09/15 14:41:04;;;;;;;;;;;;;;;;;;5112291;27;19919;-82
2022/09/15 14:43:50;;;;;;;;;;;;;;;;;;5119256;27;19922;-83
2022/09/15 14:46:38;;;;;;;;;;;;;;;;;;5116455;28;19900;-82
2022/09/15 14:49:25;;;;;;;;;;;;;;;;;;5124547;27;19971;-82
2022/09/15 14:52:11;;;;;;;;;;;;;;;;;;5108563;27;19897;-84
2022/09/15 14:54:57;;;;;;;;;;;;;;;;;;5119427;27;19916;-79
2022/09/15 14:57:44;;;;;;;;;;;;;;;;;;5114823;27;20366;-81
2022/09/15 15:00:30;;;;;;;;;;;;;;;;;;5105718;27;19916;-83
2022/09/15 15:03:17;;;;;;;;;;;;;;;;;;5116098;27;19912;-84
2022/09/15 15:06:04;;;;;;;;;;;;;;;;;;5107736;28;19915;-81
2022/09/15 15:08:51;;;;;;;;;;;;;;;;;;5107661;28;19908;-84
2022/09/15 15:11:37;;;;;;;;;;;;;;;;;;5103535;28;19931;-84
2022/09/15 15:14:24;;;;;;;;;;;;;;;;;;5126894;27;19911;-85
2022/09/15 15:17:10;;;;;;;;;;;;;;;;;;5123310;27;19915;-81
2022/09/15 15:19:56;;;;;;;;;;;;;;;;;;5119949;28;19916;-80
2022/09/15 15:22:43;;;;;;;;;;;;;;;;;;5126671;27;19923;-81
2022/09/15 15:25:31;;;;;;;;;;;;;;;;;;5129464;27;19908;-82
2022/09/15 15:28:17;;;;;;;;;;;;;;;;;;5121274;27;19998;-81
2022/09/15 15:31:05;;;;;;;;;;;;;;;;;;5125659;27;19907;-81
2022/09/15 15:33:51;;;;;;;;;;;;;;;;;;5128897;27;19896;-80
2022/09/15 15:36:39;;;;;;;;;;;;;;;;;;5127240;27;19912;-81
2022/09/15 15:39:26;;;;;;;;;;;;;;;;;;5122162;27;19919;-82
2022/09/15 15:42:12;;;;;;;;;;;;;;;;;;5104092;28;19915;-80
2022/09/15 15:44:59;;;;;;;;;;;;;;;;;;5114092;28;19908;-81
2022/09/15 15:47:45;;;;;;;;;;;;;;;;;;5127995;27;19911;-79
2022/09/15 15:50:32;;;;;;;;;;;;;;;;;;5109538;28;19908;-81
2022/09/15 15:53:18;;;;;;;;;;;;;;;;;;5119575;27;19918;-81
2022/09/15 15:56:04;;;;;;;;;;;;;;;;;;5117137;27;19908;-81
2022/09/15 15:58:51;;;;;;;;;;;;;;;;;;5111321;28;19935;-81
2022/09/15 16:01:37;;;;;;;;;;;;;;;;;;5098500;28;19930;-81
2022/09/15 16:04:24;;;;;;;;;;;;;;;;;;5105452;27;19927;-83
2022/09/15 16:07:10;;;;;;;;;;;;;;;;;;5113884;28;19981;-81
2022/09/15 16:09:57;;;;;;;;;;;;;;;;;;5110326;28;19912;-80
2022/09/15 16:12:43;;;;;;;;;;;;;;;;;;5093012;27;19911;-80
2022/09/15 16:15:30;;;;;;;;;;;;;;;;;;5111730;28;20231;-81
2022/09/15 16:18:16;;;;;;;;;;;;;;;;;;5094921;27;19912;-81
2022/09/15 16:21:03;;;;;;;;;;;;;;;;;;5113281;27;19923;-81
2022/09/15 16:23:49;;;;;;;;;;;;;;;;;;5104549;28;19924;-81
2022/09/15 16:26:36;;;;;;;;;;;;;;;;;;5107172;28;20261;-83
2022/09/15 16:29:27;;;;;;;;;;;;;;;;;;5106032;28;19915;-81
2022/09/15 16:32:14;;;;;;;;;;;;;;;;;;5093020;28;19912;-83
2022/09/15 16:35:00;;;;;;;;;;;;;;;;;;5111025;28;19919;-82
2022/09/15 16:37:47;;;;;;;;;;;;;;;;;;5116506;28;19922;-81
2022/09/15 16:40:35;;;;;;;;;;;;;;;;;;5095433;28;19916;-81
2022/09/15 16:43:22;;;;;;;;;;;;;;;;;;5119086;28;19908;-81
2022/09/15 16:46:08;;;;;;;;;;;;;;;;;;5101672;28;20287;-83
2022/09/15 16:48:55;;;;;;;;;;;;;;;;;;5086627;28;19908;-82
2022/09/15 16:51:41;;;;;;;;;;;;;;;;;;5102823;28;19922;-82
2022/09/15 16:54:28;;;;;;;;;;;;;;;;;;5096971;28;19912;-82
2022/09/15 16:57:16;;;;;;;;;;;;;;;;;;5094108;28;19919;-82
2022/09/15 17:00:03;;;;;;;;;;;;;;;;;;5090183;28;19920;-82
2022/09/15 17:02:49;;;;;;;;;;;;;;;;;;5108062;28;19934;-82
2022/09/15 17:05:36;;;;;;;;;;;;;;;;;;5104689;27;19916;-80
2022/09/15 17:08:24;;;;;;;;;;;;;;;;;;5102068;27;19938;-84
2022/09/15 17:11:11;;;;;;;;;;;;;;;;;;5104668;27;19918;-81
2022/09/15 17:13:57;;;;;;;;;;;;;;;;;;5091927;28;19916;-83
2022/09/15 17:16:46;;;;;;;;;;;;;;;;;;5097780;27;19919;-82
2022/09/15 17:19:32;;;;;;;;;;;;;;;;;;5104819;27;19927;-82
2022/09/15 17:22:19;;;;;;;;;;;;;;;;;;5110464;28;19915;-82
2022/09/15 17:25:05;;;;;;;;;;;;;;;;;;5075682;28;19924;-83
2022/09/15 17:27:52;;;;;;;;;;;;;;;;;;5087747;28;19908;-84
2022/09/15 17:30:38;;;;;;;;;;;;;;;;;;5080350;28;19984;-82
2022/09/15 17:33:25;;;;;;;;;;;;;;;;;;5083281;28;19916;-82
2022/09/15 17:36:11;;;;;;;;;;;;;;;;;;5083871;28;19919;-80
2022/09/15 17:38:58;;;;;;;;;;;;;;;;;;5069394;28;19932;-82
2022/09/15 17:41:45;;;;;;;;;;;;;;;;;;5076215;28;20002;-82
2022/09/15 17:44:32;;;;;;;;;;;;;;;;;;5089117;28;19920;-83
2022/09/15 17:47:18;;;;;;;;;;;;;;;;;;5072705;28;19908;-82
2022/09/15 17:50:05;;;;;;;;;;;;;;;;;;5066370;28;19938;-82
2022/09/15 17:52:51;;;;;;;;;;;;;;;;;;5084191;28;19930;-82
2022/09/15 17:55:38;;;;;;;;;;;;;;;;;;5077130;28;20007;-82
2022/09/15 17:58:25;;;;;;;;;;;;;;;;;;5089841;28;19914;-82
2022/09/15 18:01:13;;;;;;;;;;;;;;;;;;5092641;28;20375;-81
2022/09/15 18:04:02;;;;;;;;;;;;;;;;;;5082131;28;20275;-82
2022/09/15 18:06:50;;;;;;;;;;;;;;;;;;5089774;28;19918;-81
2022/09/15 18:09:37;;;;;;;;;;;;;;;;;;5075212;28;19915;-81
2022/09/15 18:12:24;;;;;;;;;;;;;;;;;;5092891;28;20253;-81
2022/09/15 18:15:11;;;;;;;;;;;;;;;;;;5079449;28;19908;-81
2022/09/15 18:17:58;;;;;;;;;;;;;;;;;;5071661;28;19920;-81
2022/09/15 18:20:45;;;;;;;;;;;;;;;;;;5076336;28;20300;-80
2022/09/15 18:23:31;;;;;;;;;;;;;;;;;;5084743;27;19916;-81
2022/09/15 18:26:18;;;;;;;;;;;;;;;;;;5091989;28;19911;-81
2022/09/15 18:29:05;;;;;;;;;;;;;;;;;;5103744;27;20398;-81
2022/09/15 18:31:51;;;;;;;;;;;;;;;;;;5094254;27;20674;-80
2022/09/15 18:34:38;;;;;;;;;;;;;;;;;;5111218;27;19918;-80
2022/09/15 18:37:24;;;;;;;;;;;;;;;;;;5094096;28;20467;-81
2022/09/15 18:40:14;;;;;;;;;;;;;;;;;;5123374;27;19985;-83
2022/09/15 18:43:00;;;;;;;;;;;;;;;;;;5102906;28;19920;-78
2022/09/15 18:45:47;;;;;;;;;;;;;;;;;;5098628;27;20223;-78
2022/09/15 18:48:33;;;;;;;;;;;;;;;;;;5110041;27;19919;-80
2022/09/15 18:51:20;;;;;;;;;;;;;;;;;;5123065;27;19907;-80
2022/09/15 18:54:08;;;;;;;;;;;;;;;;;;5102754;28;19908;-80
2022/09/15 18:56:56;;;;;;;;;;;;;;;;;;5116445;27;19917;-79